Kennetcook, Canada
Current Conditions -  °F | °C
As of 4:00 AM on Thursday 27 Nov 2014 (Local Time) from CYHZ Reporting Station
Moderate Rain Moderate Rain  
Wind Chill: 27°   Ceiling: 400
Heat Index: 37°   Visibility: 3mi
Dew Point: 36°   Wind: 22mph
Humidity: 93%   Direction: 40°NE
Pressure: 29.52"   Gusts: NA
Location:  45.18°N, 63.72°W
Report Text: CYHZ 270800Z 04019KT 3SM RA BR OVC004 03/02 A2952 RMK NS8 PRESFR SLP000
Loading
Personal Weather Stations






























Interactive Weather Map New forecast layout! Learn more

10-Day Weather Forecast

Advertisements
Track Severe Weather on mobile